KEWK/EWK METAR and TAF weather

Enter ICAO airport designator
Station Type Date Time Source
KEWK METAR 2020/01/23 09:19 UTC NOAA

KEWK 230919Z AUTO 30008KT 3SM BR OVC003 02/02 A2991 RMK AO2 CIG 001V008 FZRANO


Station Type Date Time Source
KEWK Decoded METAR 2020/01/23 09:19 UTC NOAA

Newton, Newton City/County Airport, KS, United States (KEWK) 38-03N 097-17W
Jan 23, 2020 - 04:19 AM EST / 2020.01.23 0919 UTC
Wind: from the WNW (300 degrees) at 9 MPH (8 KT):0
Visibility: 3 mile(s):0
Sky conditions: overcast
Weather: mist
Temperature: 35 F (2 C)
Windchill: 28 F (-2 C):1
Dew Point: 35 F (2 C)
Relative Humidity: 100%
Pressure (altimeter): 29.91 in. Hg (1012 hPa)
ob: KEWK 230919Z AUTO 30008KT 3SM BR OVC003 02/02 A2991 RMK AO2 CIG 001V008 FZRANO
cycle: 9

Station Type Date Time Source
KEWK TAF UTC NOAA

Error!

Example: see airport list